»·PEaware :: N4462U KMHV-KSMX

N4462U :: KMHV-KSMX

FLIGHT INFORMATION

Flight Status: Arrived
Operator: Privately registered:
United States
More flights under this callsign
Pilot: Robert C. (26285)
Aircraft: SOCATA TBM-850
(TBM8)
More flights by this aircraft type
Origin: KMHV Mojave
United States
Destination: KSMX Santa Maria Pub/Capt Hancock
United States
More flights between these airports :: More routes between these airports
Route: JERID5 JERID GMN RZS V12 GVO
File this flight plan on PilotEdge
Remarks:
Altitude:
(Current/Filed)
16,000ft
Speed:
(Current/Filed)
285kts
Departed: 30-Nov-23 04:43 PM
Arrived: 30-Nov-23 05:24 PM
Distance/Time
Traveled:
113nm/0:41
Distance/Time
To Go:
Arrived

Flight Plot

Page will automatically refresh every two minutes.

Flight plan parsing failed; only flown route is shown


Map Options




Map Legend


Flown Route
Filed Route
Departure Airport
Arrival Airport
Navaid (VOR, NDB)
Fix

Horizontal Profiles

Position Reports

Time Latitude Longitude Heading Altitude Ground
Speed
30-Nov-23 16:16 35.057211 -118.155016 271 2780ft 0kts
30-Nov-23 16:17 35.057211 -118.155016 271 2780ft 0kts
30-Nov-23 16:18 35.057211 -118.155016 271 2780ft 0kts
30-Nov-23 16:19 35.057211 -118.155016 271 2780ft 0kts
30-Nov-23 16:20 35.057211 -118.155016 271 2780ft 0kts
30-Nov-23 16:21 35.057211 -118.155016 271 2780ft 0kts
30-Nov-23 16:22 35.057211 -118.155016 271 2780ft 0kts
30-Nov-23 16:23 35.057211 -118.155016 271 2780ft 0kts
30-Nov-23 16:24 35.057211 -118.155016 271 2777ft 0kts
30-Nov-23 16:25 35.057211 -118.155016 271 2777ft 0kts
30-Nov-23 16:27 35.057211 -118.155016 271 2777ft 0kts
30-Nov-23 16:28 35.057211 -118.155016 271 2777ft 0kts
30-Nov-23 16:29 35.057211 -118.155016 271 2777ft 0kts
30-Nov-23 16:30 35.057211 -118.155016 271 2777ft 0kts
30-Nov-23 16:31 35.057211 -118.155016 271 2777ft 0kts
30-Nov-23 16:32 35.057211 -118.155016 271 2777ft 0kts
30-Nov-23 16:33 35.057211 -118.155016 271 2777ft 0kts
30-Nov-23 16:34 35.057211 -118.155016 271 2777ft 0kts
30-Nov-23 16:35 35.057211 -118.155016 271 2777ft 0kts
30-Nov-23 16:36 35.057211 -118.155016 271 2777ft 0kts
30-Nov-23 16:37 35.057617 -118.152477 88 2757ft 13kts
30-Nov-23 16:38 35.057608 -118.147760 94 2749ft 7kts
30-Nov-23 16:39 35.057670 -118.142743 59 2739ft 10kts
30-Nov-23 16:40 35.058288 -118.142559 359 2739ft 0kts
30-Nov-23 16:41 35.058288 -118.142559 359 2739ft 0kts
30-Nov-23 16:42 35.058678 -118.142565 0 2739ft 10kts
30-Nov-23 16:43 35.058537 -118.161162 262 3325ft 104kts
30-Nov-23 16:44 35.048994 -118.201977 223 4992ft 159kts
30-Nov-23 16:45 35.015024 -118.233122 231 7101ft 154kts
30-Nov-23 16:46 34.981288 -118.267656 229 9088ft 161kts
30-Nov-23 16:47 34.942824 -118.307886 227 10020ft 217kts
30-Nov-23 16:48 34.895627 -118.355224 225 11286ft 205kts
30-Nov-23 16:49 34.870711 -118.408453 267 12720ft 194kts
30-Nov-23 16:50 34.859077 -118.478093 264 13061ft 223kts
30-Nov-23 16:51 34.848302 -118.552399 264 13797ft 209kts
30-Nov-23 16:52 34.838882 -118.616797 266 15336ft 191kts
30-Nov-23 16:53 34.829640 -118.683390 266 15989ft 215kts
30-Nov-23 16:53 34.820875 -118.746251 265 15995ft 233kts
30-Nov-23 16:55 34.807671 -118.837959 265 16013ft 238kts
30-Nov-23 16:56 34.786743 -118.915670 255 15977ft 245kts
30-Nov-23 16:57 34.761561 -118.993781 255 15965ft 249kts
30-Nov-23 16:57 34.740663 -119.060026 256 16007ft 254kts
30-Nov-23 16:59 34.710950 -119.154024 255 15997ft 255kts
30-Nov-23 17:00 34.684767 -119.234579 255 15993ft 257kts
30-Nov-23 17:00 34.662944 -119.302003 255 16016ft 259kts
30-Nov-23 17:01 34.636506 -119.384039 256 15679ft 265kts
30-Nov-23 17:02 34.610416 -119.466386 254 14156ft 258kts
30-Nov-23 17:04 34.579765 -119.558222 253 12365ft 246kts
30-Nov-23 17:05 34.554484 -119.634677 254 11104ft 245kts
30-Nov-23 17:05 34.533920 -119.697275 254 10080ft 236kts
30-Nov-23 17:06 34.511293 -119.768249 263 9091ft 216kts
30-Nov-23 17:07 34.514850 -119.836884 279 9024ft 205kts
30-Nov-23 17:08 34.518969 -119.905405 279 8961ft 200kts
30-Nov-23 17:09 34.523729 -119.973376 282 7928ft 192kts
30-Nov-23 17:10 34.527694 -120.035260 280 6847ft 185kts
30-Nov-23 17:11 34.535311 -120.096082 312 6111ft 177kts
30-Nov-23 17:12 34.570478 -120.138970 316 5613ft 181kts
30-Nov-23 17:13 34.605278 -120.183248 317 4848ft 179kts
30-Nov-23 17:14 34.638639 -120.225180 317 4422ft 165kts
30-Nov-23 17:15 34.672280 -120.266911 318 4055ft 176kts
30-Nov-23 17:16 34.704905 -120.307502 317 3696ft 161kts
30-Nov-23 17:17 34.738527 -120.339288 332 3319ft 151kts
30-Nov-23 17:18 34.774958 -120.364599 330 2562ft 147kts
30-Nov-23 17:19 34.808700 -120.387935 329 2238ft 131kts
30-Nov-23 17:20 34.840501 -120.409430 328 1728ft 115kts
30-Nov-23 17:21 34.867998 -120.427065 341 1022ft 116kts
30-Nov-23 17:23 34.891604 -120.444551 311 346ft 77kts
30-Nov-23 17:23 34.898848 -120.451505 90 246ft 13kts
30-Nov-23 17:24 34.898842 -120.451130 89 246ft 6kts
30-Nov-23 17:25 34.897933 -120.448550 45 250ft 7kts
30-Nov-23 17:26 34.898418 -120.448130 228 250ft 0kts
30-Nov-23 17:27 34.898418 -120.448130 228 250ft 0kts
30-Nov-23 17:28 34.898418 -120.448130 228 250ft 0kts
30-Nov-23 17:29 34.898418 -120.448130 228 250ft 0kts
30-Nov-23 17:30 34.898418 -120.448130 228 250ft 0kts
30-Nov-23 17:31 34.898418 -120.448130 228 250ft 0kts
30-Nov-23 17:32 34.898418 -120.448130 228 250ft 0kts
30-Nov-23 17:33 34.898418 -120.448130 228 250ft 0kts
30-Nov-23 17:34 34.898418 -120.448130 228 250ft 0kts
30-Nov-23 17:35 34.898418 -120.448130 228 250ft 0kts
30-Nov-23 17:36 34.898418 -120.448130 228 250ft 0kts

Navigation Log

Ident Type
Flight plan parsing failed, navigation log unavailable